sensor_id;sensor_type;location;lat;lon;timestamp;P1;durP1;ratioP1;P2;durP2;ratioP2
13163;SDS011;6647;53.688;10.746;2023-07-29T00:00:10;2.65;;;2.05;;
13163;SDS011;6647;53.688;10.746;2023-07-29T00:01:11;1.67;;;1.57;;
13163;SDS011;6647;53.688;10.746;2023-07-29T00:02:11;1.80;;;1.70;;
13163;SDS011;6647;53.688;10.746;2023-07-29T00:03:11;3.80;;;2.20;;
13163;SDS011;6647;53.688;10.746;2023-07-29T00:04:12;3.83;;;2.00;;
13163;SDS011;6647;53.688;10.746;2023-07-29T00:05:12;2.07;;;1.93;;
13163;SDS011;6647;53.688;10.746;2023-07-29T00:06:13;1.90;;;1.80;;
13163;SDS011;6647;53.688;10.746;2023-07-29T00:07:14;2.70;;;2.20;;
13163;SDS011;6647;53.688;10.746;2023-07-29T00:08:14;2.37;;;2.17;;
13163;SDS011;6647;53.688;10.746;2023-07-29T00:09:14;3.63;;;2.20;;
13163;SDS011;6647;53.688;10.746;2023-07-29T00:10:15;2.93;;;1.83;;
13163;SDS011;6647;53.688;10.746;2023-07-29T00:11:16;2.40;;;2.20;;
13163;SDS011;6647;53.688;10.746;2023-07-29T00:12:17;5.80;;;2.30;;
13163;SDS011;6647;53.688;10.746;2023-07-29T00:13:17;5.97;;;1.73;;
13163;SDS011;6647;53.688;10.746;2023-07-29T00:14:17;4.80;;;2.27;;
13163;SDS011;6647;53.688;10.746;2023-07-29T00:15:18;3.60;;;2.70;;
13163;SDS011;6647;53.688;10.746;2023-07-29T00:16:18;2.10;;;2.00;;
13163;SDS011;6647;53.688;10.746;2023-07-29T00:17:21;3.05;;;2.28;;
13163;SDS011;6647;53.688;10.746;2023-07-29T00:18:23;4.00;;;1.93;;
13163;SDS011;6647;53.688;10.746;2023-07-29T00:19:23;6.00;;;2.57;;
13163;SDS011;6647;53.688;10.746;2023-07-29T00:20:24;3.70;;;1.70;;
13163;SDS011;6647;53.688;10.746;2023-07-29T00:21:24;3.80;;;2.50;;
13163;SDS011;6647;53.688;10.746;2023-07-29T00:22:24;2.03;;;1.93;;
13163;SDS011;6647;53.688;10.746;2023-07-29T00:23:25;2.87;;;2.37;;
13163;SDS011;6647;53.688;10.746;2023-07-29T00:24:25;2.10;;;2.00;;
13163;SDS011;6647;53.688;10.746;2023-07-29T00:25:26;2.13;;;1.93;;
13163;SDS011;6647;53.688;10.746;2023-07-29T00:26:26;3.60;;;2.53;;
13163;SDS011;6647;53.688;10.746;2023-07-29T00:27:29;2.90;;;2.50;;
13163;SDS011;6647;53.688;10.746;2023-07-29T00:28:29;2.53;;;2.33;;
13163;SDS011;6647;53.688;10.746;2023-07-29T00:29:29;2.33;;;2.13;;
13163;SDS011;6647;53.688;10.746;2023-07-29T00:30:30;2.37;;;2.17;;
13163;SDS011;6647;53.688;10.746;2023-07-29T00:31:30;3.03;;;2.17;;
13163;SDS011;6647;53.688;10.746;2023-07-29T00:32:30;4.50;;;2.07;;
13163;SDS011;6647;53.688;10.746;2023-07-29T00:33:31;4.23;;;2.50;;
13163;SDS011;6647;53.688;10.746;2023-07-29T00:34:32;3.60;;;2.30;;
13163;SDS011;6647;53.688;10.746;2023-07-29T00:35:32;2.67;;;2.47;;
13163;SDS011;6647;53.688;10.746;2023-07-29T00:36:33;2.37;;;1.90;;
13163;SDS011;6647;53.688;10.746;2023-07-29T00:37:33;2.73;;;2.53;;
13163;SDS011;6647;53.688;10.746;2023-07-29T00:38:33;3.90;;;2.23;;
13163;SDS011;6647;53.688;10.746;2023-07-29T00:39:34;2.43;;;2.03;;
13163;SDS011;6647;53.688;10.746;2023-07-29T00:40:35;4.43;;;2.20;;
13163;SDS011;6647;53.688;10.746;2023-07-29T00:41:37;2.50;;;2.30;;
13163;SDS011;6647;53.688;10.746;2023-07-29T00:42:37;2.20;;;2.10;;
13163;SDS011;6647;53.688;10.746;2023-07-29T00:43:37;2.50;;;2.30;;
13163;SDS011;6647;53.688;10.746;2023-07-29T00:44:38;2.70;;;2.20;;
13163;SDS011;6647;53.688;10.746;2023-07-29T00:45:39;2.70;;;2.50;;
13163;SDS011;6647;53.688;10.746;2023-07-29T00:46:41;2.58;;;2.38;;
13163;SDS011;6647;53.688;10.746;2023-07-29T00:47:43;2.30;;;2.10;;
13163;SDS011;6647;53.688;10.746;2023-07-29T00:48:43;3.60;;;2.70;;
13163;SDS011;6647;53.688;10.746;2023-07-29T00:49:44;2.30;;;2.00;;
13163;SDS011;6647;53.688;10.746;2023-07-29T00:50:45;5.00;;;2.20;;
13163;SDS011;6647;53.688;10.746;2023-07-29T00:51:46;2.70;;;2.50;;
13163;SDS011;6647;53.688;10.746;2023-07-29T00:52:47;2.30;;;2.20;;
13163;SDS011;6647;53.688;10.746;2023-07-29T00:53:48;4.13;;;2.60;;
13163;SDS011;6647;53.688;10.746;2023-07-29T00:54:49;2.93;;;2.20;;
13163;SDS011;6647;53.688;10.746;2023-07-29T00:55:50;2.80;;;2.60;;
13163;SDS011;6647;53.688;10.746;2023-07-29T00:56:50;2.63;;;2.43;;
13163;SDS011;6647;53.688;10.746;2023-07-29T00:57:51;2.60;;;2.30;;
13163;SDS011;6647;53.688;10.746;2023-07-29T00:58:54;2.17;;;1.95;;
13163;SDS011;6647;53.688;10.746;2023-07-29T00:59:59;2.42;;;2.03;;
13163;SDS011;6647;53.688;10.746;2023-07-29T01:01:02;4.65;;;2.42;;
13163;SDS011;6647;53.688;10.746;2023-07-29T01:02:02;2.40;;;2.30;;
13163;SDS011;6647;53.688;10.746;2023-07-29T01:03:03;2.60;;;2.40;;
13163;SDS011;6647;53.688;10.746;2023-07-29T01:04:03;2.90;;;2.70;;
13163;SDS011;6647;53.688;10.746;2023-07-29T01:05:04;2.40;;;2.00;;
13163;SDS011;6647;53.688;10.746;2023-07-29T01:08:32;3.25;;;2.60;;
13163;SDS011;6647;53.688;10.746;2023-07-29T01:09:41;3.15;;;2.85;;
13163;SDS011;6647;53.688;10.746;2023-07-29T01:10:50;4.55;;;2.97;;
13163;SDS011;6647;53.688;10.746;2023-07-29T01:12:13;2.58;;;2.38;;
13163;SDS011;6647;53.688;10.746;2023-07-29T01:13:22;2.30;;;2.10;;
13163;SDS011;6647;53.688;10.746;2023-07-29T01:14:46;2.80;;;2.60;;
13163;SDS011;6647;53.688;10.746;2023-07-29T01:15:55;3.67;;;3.13;;
13163;SDS011;6647;53.688;10.746;2023-07-29T01:16:58;3.88;;;2.58;;
13163;SDS011;6647;53.688;10.746;2023-07-29T01:18:08;3.65;;;3.30;;
13163;SDS011;6647;53.688;10.746;2023-07-29T01:19:15;2.80;;;2.60;;
13163;SDS011;6647;53.688;10.746;2023-07-29T01:20:29;3.80;;;2.70;;
13163;SDS011;6647;53.688;10.746;2023-07-29T01:21:33;2.67;;;2.47;;
13163;SDS011;6647;53.688;10.746;2023-07-29T01:22:36;2.70;;;2.50;;
13163;SDS011;6647;53.688;10.746;2023-07-29T01:23:37;2.80;;;2.60;;
13163;SDS011;6647;53.688;10.746;2023-07-29T01:24:38;3.83;;;2.80;;
13163;SDS011;6647;53.688;10.746;2023-07-29T01:25:39;3.42;;;3.20;;
13163;SDS011;6647;53.688;10.746;2023-07-29T01:26:40;9.30;;;2.93;;
13163;SDS011;6647;53.688;10.746;2023-07-29T01:27:41;3.10;;;2.77;;
13163;SDS011;6647;53.688;10.746;2023-07-29T01:28:43;3.90;;;2.85;;
13163;SDS011;6647;53.688;10.746;2023-07-29T01:29:43;4.67;;;2.90;;
13163;SDS011;6647;53.688;10.746;2023-07-29T01:30:44;5.00;;;2.80;;
13163;SDS011;6647;53.688;10.746;2023-07-29T01:31:46;3.40;;;3.10;;
13163;SDS011;6647;53.688;10.746;2023-07-29T01:32:59;3.00;;;2.78;;
13163;SDS011;6647;53.688;10.746;2023-07-29T01:34:06;3.33;;;3.03;;
13163;SDS011;6647;53.688;10.746;2023-07-29T01:35:31;3.22;;;2.90;;
13163;SDS011;6647;53.688;10.746;2023-07-29T01:36:34;2.75;;;2.55;;
13163;SDS011;6647;53.688;10.746;2023-07-29T01:37:40;3.22;;;2.55;;
13163;SDS011;6647;53.688;10.746;2023-07-29T01:38:41;3.17;;;2.67;;
13163;SDS011;6647;53.688;10.746;2023-07-29T01:39:42;3.20;;;2.90;;
13163;SDS011;6647;53.688;10.746;2023-07-29T01:40:44;2.95;;;2.75;;
13163;SDS011;6647;53.688;10.746;2023-07-29T01:41:44;3.33;;;3.13;;
13163;SDS011;6647;53.688;10.746;2023-07-29T01:42:45;4.73;;;3.20;;
13163;SDS011;6647;53.688;10.746;2023-07-29T01:43:46;3.23;;;3.03;;
13163;SDS011;6647;53.688;10.746;2023-07-29T01:44:46;5.27;;;2.80;;
13163;SDS011;6647;53.688;10.746;2023-07-29T01:45:48;3.40;;;3.10;;
13163;SDS011;6647;53.688;10.746;2023-07-29T01:46:49;3.40;;;3.10;;
13163;SDS011;6647;53.688;10.746;2023-07-29T01:47:50;4.30;;;3.40;;
13163;SDS011;6647;53.688;10.746;2023-07-29T01:48:50;3.90;;;3.60;;
13163;SDS011;6647;53.688;10.746;2023-07-29T01:49:50;3.63;;;2.80;;
13163;SDS011;6647;53.688;10.746;2023-07-29T01:50:50;4.83;;;3.00;;
13163;SDS011;6647;53.688;10.746;2023-07-29T01:51:51;3.57;;;3.27;;
13163;SDS011;6647;53.688;10.746;2023-07-29T01:52:51;3.63;;;2.80;;
13163;SDS011;6647;53.688;10.746;2023-07-29T01:53:52;5.10;;;3.10;;
13163;SDS011;6647;53.688;10.746;2023-07-29T01:54:52;8.20;;;3.77;;
13163;SDS011;6647;53.688;10.746;2023-07-29T01:55:53;5.70;;;3.10;;
13163;SDS011;6647;53.688;10.746;2023-07-29T01:56:54;5.38;;;3.53;;
13163;SDS011;6647;53.688;10.746;2023-07-29T01:57:54;3.47;;;3.17;;
13163;SDS011;6647;53.688;10.746;2023-07-29T01:58:55;4.00;;;3.20;;
13163;SDS011;6647;53.688;10.746;2023-07-29T01:59:55;3.93;;;3.57;;
13163;SDS011;6647;53.688;10.746;2023-07-29T02:00:55;4.43;;;4.03;;
13163;SDS011;6647;53.688;10.746;2023-07-29T02:01:56;4.20;;;3.90;;
13163;SDS011;6647;53.688;10.746;2023-07-29T02:02:56;4.37;;;4.00;;
13163;SDS011;6647;53.688;10.746;2023-07-29T02:03:56;4.80;;;4.10;;
13163;SDS011;6647;53.688;10.746;2023-07-29T02:04:57;3.70;;;3.40;;
13163;SDS011;6647;53.688;10.746;2023-07-29T02:05:57;4.83;;;4.00;;
13163;SDS011;6647;53.688;10.746;2023-07-29T02:06:57;7.43;;;4.93;;
13163;SDS011;6647;53.688;10.746;2023-07-29T02:07:58;4.40;;;4.03;;
13163;SDS011;6647;53.688;10.746;2023-07-29T02:08:58;4.20;;;3.90;;
13163;SDS011;6647;53.688;10.746;2023-07-29T02:09:58;6.30;;;4.90;;
13163;SDS011;6647;53.688;10.746;2023-07-29T02:10:59;14.47;;;4.90;;
13163;SDS011;6647;53.688;10.746;2023-07-29T02:11:59;4.90;;;4.50;;
13163;SDS011;6647;53.688;10.746;2023-07-29T02:12:59;11.80;;;4.93;;
13163;SDS011;6647;53.688;10.746;2023-07-29T02:14:00;8.27;;;4.50;;
13163;SDS011;6647;53.688;10.746;2023-07-29T02:15:00;5.33;;;4.83;;
13163;SDS011;6647;53.688;10.746;2023-07-29T02:16:00;5.77;;;4.37;;
13163;SDS011;6647;53.688;10.746;2023-07-29T02:17:01;5.37;;;4.87;;
13163;SDS011;6647;53.688;10.746;2023-07-29T02:18:01;5.87;;;5.00;;
13163;SDS011;6647;53.688;10.746;2023-07-29T02:19:02;4.50;;;4.10;;
13163;SDS011;6647;53.688;10.746;2023-07-29T02:20:03;6.60;;;4.40;;
13163;SDS011;6647;53.688;10.746;2023-07-29T02:21:04;5.53;;;5.07;;
13163;SDS011;6647;53.688;10.746;2023-07-29T02:22:04;5.33;;;4.87;;
13163;SDS011;6647;53.688;10.746;2023-07-29T02:23:05;6.53;;;4.57;;
13163;SDS011;6647;53.688;10.746;2023-07-29T02:24:05;5.10;;;4.60;;
13163;SDS011;6647;53.688;10.746;2023-07-29T02:25:05;5.20;;;4.70;;
13163;SDS011;6647;53.688;10.746;2023-07-29T02:26:06;5.33;;;4.87;;
13163;SDS011;6647;53.688;10.746;2023-07-29T02:27:07;5.10;;;4.37;;
13163;SDS011;6647;53.688;10.746;2023-07-29T02:28:07;5.50;;;4.40;;
13163;SDS011;6647;53.688;10.746;2023-07-29T02:29:07;5.80;;;5.30;;
13163;SDS011;6647;53.688;10.746;2023-07-29T02:30:12;6.13;;;4.82;;
13163;SDS011;6647;53.688;10.746;2023-07-29T02:32:16;5.65;;;5.15;;
13163;SDS011;6647;53.688;10.746;2023-07-29T02:33:17;4.90;;;4.50;;
13163;SDS011;6647;53.688;10.746;2023-07-29T02:34:17;7.63;;;4.70;;
13163;SDS011;6647;53.688;10.746;2023-07-29T02:35:17;6.30;;;5.57;;
13163;SDS011;6647;53.688;10.746;2023-07-29T02:36:18;6.20;;;4.83;;
13163;SDS011;6647;53.688;10.746;2023-07-29T02:37:18;5.80;;;5.23;;
13163;SDS011;6647;53.688;10.746;2023-07-29T02:38:19;4.87;;;4.47;;
13163;SDS011;6647;53.688;10.746;2023-07-29T02:39:19;5.40;;;4.83;;
13163;SDS011;6647;53.688;10.746;2023-07-29T02:40:19;4.70;;;4.40;;
13163;SDS011;6647;53.688;10.746;2023-07-29T02:41:21;4.72;;;4.32;;
13163;SDS011;6647;53.688;10.746;2023-07-29T02:42:21;6.00;;;4.90;;
13163;SDS011;6647;53.688;10.746;2023-07-29T02:43:21;9.13;;;4.73;;
13163;SDS011;6647;53.688;10.746;2023-07-29T02:44:22;5.07;;;4.67;;
13163;SDS011;6647;53.688;10.746;2023-07-29T02:45:22;4.93;;;4.47;;
13163;SDS011;6647;53.688;10.746;2023-07-29T02:46:22;5.43;;;4.93;;
13163;SDS011;6647;53.688;10.746;2023-07-29T02:47:23;6.77;;;5.33;;
13163;SDS011;6647;53.688;10.746;2023-07-29T02:48:24;5.50;;;5.10;;
13163;SDS011;6647;53.688;10.746;2023-07-29T02:49:25;9.15;;;5.78;;
13163;SDS011;6647;53.688;10.746;2023-07-29T02:50:26;5.70;;;5.20;;
13163;SDS011;6647;53.688;10.746;2023-07-29T02:51:26;5.50;;;4.90;;
13163;SDS011;6647;53.688;10.746;2023-07-29T02:52:26;5.53;;;5.03;;
13163;SDS011;6647;53.688;10.746;2023-07-29T02:53:26;5.90;;;5.40;;
13163;SDS011;6647;53.688;10.746;2023-07-29T02:54:27;5.83;;;5.23;;
13163;SDS011;6647;53.688;10.746;2023-07-29T02:55:27;4.80;;;4.40;;
13163;SDS011;6647;53.688;10.746;2023-07-29T02:56:28;6.10;;;4.93;;
13163;SDS011;6647;53.688;10.746;2023-07-29T02:57:28;5.77;;;5.10;;
13163;SDS011;6647;53.688;10.746;2023-07-29T02:58:29;6.73;;;4.77;;
13163;SDS011;6647;53.688;10.746;2023-07-29T02:59:30;5.63;;;5.13;;
13163;SDS011;6647;53.688;10.746;2023-07-29T03:00:33;5.83;;;5.23;;
13163;SDS011;6647;53.688;10.746;2023-07-29T03:01:34;4.57;;;4.22;;
13163;SDS011;6647;53.688;10.746;2023-07-29T03:02:34;5.33;;;4.90;;
13163;SDS011;6647;53.688;10.746;2023-07-29T03:03:35;7.07;;;4.90;;
13163;SDS011;6647;53.688;10.746;2023-07-29T03:04:35;6.27;;;5.60;;
13163;SDS011;6647;53.688;10.746;2023-07-29T03:05:35;7.23;;;5.20;;
13163;SDS011;6647;53.688;10.746;2023-07-29T03:06:37;8.23;;;5.63;;
13163;SDS011;6647;53.688;10.746;2023-07-29T03:07:37;8.83;;;5.03;;
13163;SDS011;6647;53.688;10.746;2023-07-29T03:08:37;6.50;;;5.80;;
13163;SDS011;6647;53.688;10.746;2023-07-29T03:09:38;9.40;;;6.23;;
13163;SDS011;6647;53.688;10.746;2023-07-29T03:10:38;5.53;;;5.07;;
13163;SDS011;6647;53.688;10.746;2023-07-29T03:11:38;5.57;;;5.07;;
13163;SDS011;6647;53.688;10.746;2023-07-29T03:12:39;6.70;;;5.03;;
13163;SDS011;6647;53.688;10.746;2023-07-29T03:13:39;5.90;;;5.30;;
13163;SDS011;6647;53.688;10.746;2023-07-29T03:14:39;9.43;;;6.53;;
13163;SDS011;6647;53.688;10.746;2023-07-29T03:15:41;8.57;;;5.60;;
13163;SDS011;6647;53.688;10.746;2023-07-29T03:16:41;7.13;;;5.77;;
13163;SDS011;6647;53.688;10.746;2023-07-29T03:17:42;6.90;;;5.60;;
13163;SDS011;6647;53.688;10.746;2023-07-29T03:18:42;6.67;;;6.10;;
13163;SDS011;6647;53.688;10.746;2023-07-29T03:19:43;6.10;;;5.57;;
13163;SDS011;6647;53.688;10.746;2023-07-29T03:20:43;5.50;;;5.00;;
13163;SDS011;6647;53.688;10.746;2023-07-29T03:21:44;6.10;;;5.60;;
13163;SDS011;6647;53.688;10.746;2023-07-29T03:22:44;5.67;;;4.97;;
13163;SDS011;6647;53.688;10.746;2023-07-29T03:23:45;5.30;;;4.80;;
13163;SDS011;6647;53.688;10.746;2023-07-29T03:24:45;5.63;;;5.13;;
13163;SDS011;6647;53.688;10.746;2023-07-29T03:25:47;5.93;;;5.40;;
13163;SDS011;6647;53.688;10.746;2023-07-29T03:26:48;5.25;;;4.75;;
13163;SDS011;6647;53.688;10.746;2023-07-29T03:27:49;10.17;;;5.47;;
13163;SDS011;6647;53.688;10.746;2023-07-29T03:28:50;5.63;;;5.00;;
13163;SDS011;6647;53.688;10.746;2023-07-29T03:29:50;7.30;;;5.33;;
13163;SDS011;6647;53.688;10.746;2023-07-29T03:30:50;7.53;;;6.20;;
13163;SDS011;6647;53.688;10.746;2023-07-29T03:31:51;7.50;;;6.80;;
13163;SDS011;6647;53.688;10.746;2023-07-29T03:32:51;8.80;;;6.00;;
13163;SDS011;6647;53.688;10.746;2023-07-29T03:33:51;7.20;;;6.40;;
13163;SDS011;6647;53.688;10.746;2023-07-29T03:34:52;7.83;;;5.73;;
13163;SDS011;6647;53.688;10.746;2023-07-29T03:35:52;5.53;;;5.03;;
13163;SDS011;6647;53.688;10.746;2023-07-29T03:36:53;6.17;;;5.53;;
13163;SDS011;6647;53.688;10.746;2023-07-29T03:37:53;6.80;;;5.70;;
13163;SDS011;6647;53.688;10.746;2023-07-29T03:38:54;5.83;;;5.23;;
13163;SDS011;6647;53.688;10.746;2023-07-29T03:39:54;6.23;;;5.63;;
13163;SDS011;6647;53.688;10.746;2023-07-29T03:40:54;4.93;;;4.53;;
13163;SDS011;6647;53.688;10.746;2023-07-29T03:41:55;5.47;;;4.87;;
13163;SDS011;6647;53.688;10.746;2023-07-29T03:42:55;5.10;;;4.60;;
13163;SDS011;6647;53.688;10.746;2023-07-29T03:43:55;4.93;;;4.53;;
13163;SDS011;6647;53.688;10.746;2023-07-29T03:44:56;6.80;;;5.83;;
13163;SDS011;6647;53.688;10.746;2023-07-29T03:45:56;6.00;;;5.40;;
13163;SDS011;6647;53.688;10.746;2023-07-29T03:46:56;7.10;;;5.57;;
13163;SDS011;6647;53.688;10.746;2023-07-29T03:47:57;6.90;;;6.20;;
13163;SDS011;6647;53.688;10.746;2023-07-29T03:48:57;5.90;;;5.30;;
13163;SDS011;6647;53.688;10.746;2023-07-29T03:49:57;6.80;;;6.20;;
13163;SDS011;6647;53.688;10.746;2023-07-29T03:50:58;7.17;;;6.43;;
13163;SDS011;6647;53.688;10.746;2023-07-29T03:51:59;6.80;;;6.20;;
13163;SDS011;6647;53.688;10.746;2023-07-29T03:53:00;7.00;;;5.93;;
13163;SDS011;6647;53.688;10.746;2023-07-29T03:54:00;6.83;;;6.10;;
13163;SDS011;6647;53.688;10.746;2023-07-29T03:55:01;7.20;;;6.40;;
13163;SDS011;6647;53.688;10.746;2023-07-29T03:56:01;6.30;;;5.80;;
13163;SDS011;6647;53.688;10.746;2023-07-29T03:57:02;6.40;;;5.80;;
13163;SDS011;6647;53.688;10.746;2023-07-29T03:58:02;9.00;;;6.77;;
13163;SDS011;6647;53.688;10.746;2023-07-29T03:59:03;7.67;;;6.47;;
13163;SDS011;6647;53.688;10.746;2023-07-29T04:00:06;6.43;;;5.82;;
13163;SDS011;6647;53.688;10.746;2023-07-29T04:01:06;8.27;;;6.63;;
13163;SDS011;6647;53.688;10.746;2023-07-29T04:02:07;7.60;;;6.80;;
13163;SDS011;6647;53.688;10.746;2023-07-29T04:03:08;6.40;;;5.90;;
13163;SDS011;6647;53.688;10.746;2023-07-29T04:04:08;6.20;;;5.60;;
13163;SDS011;6647;53.688;10.746;2023-07-29T04:05:09;7.60;;;6.80;;
13163;SDS011;6647;53.688;10.746;2023-07-29T04:06:09;14.90;;;6.97;;
13163;SDS011;6647;53.688;10.746;2023-07-29T04:07:10;7.37;;;6.67;;
13163;SDS011;6647;53.688;10.746;2023-07-29T04:08:10;7.67;;;6.80;;
13163;SDS011;6647;53.688;10.746;2023-07-29T04:09:11;9.30;;;6.30;;
13163;SDS011;6647;53.688;10.746;2023-07-29T04:10:11;9.30;;;6.10;;
13163;SDS011;6647;53.688;10.746;2023-07-29T04:11:11;8.10;;;7.00;;
13163;SDS011;6647;53.688;10.746;2023-07-29T04:12:11;6.77;;;6.07;;
13163;SDS011;6647;53.688;10.746;2023-07-29T04:13:12;7.73;;;6.40;;
13163;SDS011;6647;53.688;10.746;2023-07-29T04:14:12;8.63;;;5.87;;
13163;SDS011;6647;53.688;10.746;2023-07-29T04:15:12;8.80;;;6.50;;
13163;SDS011;6647;53.688;10.746;2023-07-29T04:16:14;10.55;;;6.50;;
13163;SDS011;6647;53.688;10.746;2023-07-29T04:17:14;7.17;;;6.50;;
13163;SDS011;6647;53.688;10.746;2023-07-29T04:18:14;7.53;;;6.80;;
13163;SDS011;6647;53.688;10.746;2023-07-29T04:19:15;8.13;;;6.07;;
13163;SDS011;6647;53.688;10.746;2023-07-29T04:20:15;7.10;;;6.50;;
13163;SDS011;6647;53.688;10.746;2023-07-29T04:21:15;6.47;;;5.70;;
13163;SDS011;6647;53.688;10.746;2023-07-29T04:22:16;10.33;;;6.30;;
13163;SDS011;6647;53.688;10.746;2023-07-29T04:23:18;6.60;;;6.00;;
13163;SDS011;6647;53.688;10.746;2023-07-29T04:24:18;7.10;;;6.40;;
13163;SDS011;6647;53.688;10.746;2023-07-29T04:25:20;8.32;;;6.47;;
13163;SDS011;6647;53.688;10.746;2023-07-29T04:26:20;7.27;;;6.57;;
13163;SDS011;6647;53.688;10.746;2023-07-29T04:27:22;5.93;;;5.43;;
13163;SDS011;6647;53.688;10.746;2023-07-29T04:28:22;7.10;;;6.40;;
13163;SDS011;6647;53.688;10.746;2023-07-29T04:29:23;6.57;;;5.90;;
13163;SDS011;6647;53.688;10.746;2023-07-29T04:30:24;11.10;;;8.07;;
13163;SDS011;6647;53.688;10.746;2023-07-29T04:31:25;6.80;;;6.20;;
13163;SDS011;6647;53.688;10.746;2023-07-29T04:32:25;10.13;;;6.57;;
13163;SDS011;6647;53.688;10.746;2023-07-29T04:33:26;7.33;;;6.70;;
13163;SDS011;6647;53.688;10.746;2023-07-29T04:34:26;10.93;;;8.10;;
13163;SDS011;6647;53.688;10.746;2023-07-29T04:35:27;8.83;;;7.30;;
13163;SDS011;6647;53.688;10.746;2023-07-29T04:36:27;7.40;;;6.70;;
13163;SDS011;6647;53.688;10.746;2023-07-29T04:37:27;7.63;;;6.97;;
13163;SDS011;6647;53.688;10.746;2023-07-29T04:38:30;7.90;;;7.20;;
13163;SDS011;6647;53.688;10.746;2023-07-29T04:39:32;9.43;;;7.32;;
13163;SDS011;6647;53.688;10.746;2023-07-29T04:40:33;8.20;;;6.77;;
13163;SDS011;6647;53.688;10.746;2023-07-29T04:41:33;8.77;;;7.87;;
13163;SDS011;6647;53.688;10.746;2023-07-29T04:42:34;8.83;;;7.40;;
13163;SDS011;6647;53.688;10.746;2023-07-29T04:43:34;8.33;;;7.50;;
13163;SDS011;6647;53.688;10.746;2023-07-29T04:44:34;9.10;;;8.20;;
13163;SDS011;6647;53.688;10.746;2023-07-29T04:45:34;13.90;;;8.20;;
13163;SDS011;6647;53.688;10.746;2023-07-29T04:46:36;9.33;;;8.53;;
13163;SDS011;6647;53.688;10.746;2023-07-29T04:47:36;9.45;;;8.45;;
13163;SDS011;6647;53.688;10.746;2023-07-29T04:48:37;9.90;;;9.00;;
13163;SDS011;6647;53.688;10.746;2023-07-29T04:49:37;11.23;;;9.93;;
13163;SDS011;6647;53.688;10.746;2023-07-29T04:50:37;11.30;;;9.93;;
13163;SDS011;6647;53.688;10.746;2023-07-29T04:51:38;10.93;;;9.93;;
13163;SDS011;6647;53.688;10.746;2023-07-29T04:52:38;11.73;;;10.60;;
13163;SDS011;6647;53.688;10.746;2023-07-29T04:53:39;11.20;;;10.20;;
13163;SDS011;6647;53.688;10.746;2023-07-29T04:54:40;12.50;;;9.53;;
13163;SDS011;6647;53.688;10.746;2023-07-29T04:55:43;11.47;;;9.33;;
13163;SDS011;6647;53.688;10.746;2023-07-29T04:56:44;12.27;;;9.20;;
13163;SDS011;6647;53.688;10.746;2023-07-29T04:57:44;16.63;;;11.47;;
13163;SDS011;6647;53.688;10.746;2023-07-29T04:58:44;15.00;;;11.00;;
13163;SDS011;6647;53.688;10.746;2023-07-29T04:59:47;12.57;;;11.18;;
13163;SDS011;6647;53.688;10.746;2023-07-29T05:00:49;14.63;;;10.57;;
13163;SDS011;6647;53.688;10.746;2023-07-29T05:01:49;17.20;;;11.57;;
13163;SDS011;6647;53.688;10.746;2023-07-29T05:02:49;12.97;;;11.33;;
13163;SDS011;6647;53.688;10.746;2023-07-29T05:03:51;14.65;;;12.48;;
13163;SDS011;6647;53.688;10.746;2023-07-29T05:04:52;14.20;;;11.82;;
13163;SDS011;6647;53.688;10.746;2023-07-29T05:05:53;13.30;;;11.90;;
13163;SDS011;6647;53.688;10.746;2023-07-29T05:06:55;15.68;;;12.35;;
13163;SDS011;6647;53.688;10.746;2023-07-29T05:07:55;17.30;;;13.73;;
13163;SDS011;6647;53.688;10.746;2023-07-29T05:08:57;16.33;;;14.63;;
13163;SDS011;6647;53.688;10.746;2023-07-29T05:09:57;18.10;;;12.65;;
13163;SDS011;6647;53.688;10.746;2023-07-29T05:10:59;15.35;;;13.75;;
13163;SDS011;6647;53.688;10.746;2023-07-29T05:12:00;15.80;;;13.50;;
13163;SDS011;6647;53.688;10.746;2023-07-29T05:13:00;15.73;;;13.10;;
13163;SDS011;6647;53.688;10.746;2023-07-29T05:14:00;14.57;;;12.87;;
13163;SDS011;6647;53.688;10.746;2023-07-29T05:15:03;18.60;;;14.25;;
13163;SDS011;6647;53.688;10.746;2023-07-29T05:16:03;15.93;;;13.37;;
13163;SDS011;6647;53.688;10.746;2023-07-29T05:17:07;17.38;;;13.13;;
13163;SDS011;6647;53.688;10.746;2023-07-29T05:18:08;18.77;;;14.50;;
13163;SDS011;6647;53.688;10.746;2023-07-29T05:19:08;17.37;;;15.47;;
13163;SDS011;6647;53.688;10.746;2023-07-29T05:20:09;22.20;;;16.83;;
13163;SDS011;6647;53.688;10.746;2023-07-29T05:21:10;18.08;;;16.08;;
13163;SDS011;6647;53.688;10.746;2023-07-29T05:22:14;23.77;;;16.42;;
13163;SDS011;6647;53.688;10.746;2023-07-29T05:23:14;21.77;;;17.57;;
13163;SDS011;6647;53.688;10.746;2023-07-29T05:24:15;22.47;;;19.40;;
13163;SDS011;6647;53.688;10.746;2023-07-29T05:25:15;23.10;;;20.10;;
13163;SDS011;6647;53.688;10.746;2023-07-29T05:26:15;23.93;;;18.93;;
13163;SDS011;6647;53.688;10.746;2023-07-29T05:27:16;26.03;;;20.03;;
13163;SDS011;6647;53.688;10.746;2023-07-29T05:28:16;22.83;;;20.37;;
13163;SDS011;6647;53.688;10.746;2023-07-29T05:29:17;26.20;;;20.20;;
13163;SDS011;6647;53.688;10.746;2023-07-29T05:30:17;24.57;;;20.27;;
13163;SDS011;6647;53.688;10.746;2023-07-29T05:31:17;25.00;;;19.40;;
13163;SDS011;6647;53.688;10.746;2023-07-29T05:32:18;23.77;;;18.93;;
13163;SDS011;6647;53.688;10.746;2023-07-29T05:33:18;23.67;;;19.73;;
13163;SDS011;6647;53.688;10.746;2023-07-29T05:34:18;25.83;;;20.27;;
13163;SDS011;6647;53.688;10.746;2023-07-29T05:35:19;25.20;;;19.33;;
13163;SDS011;6647;53.688;10.746;2023-07-29T05:36:20;22.65;;;18.45;;
13163;SDS011;6647;53.688;10.746;2023-07-29T05:37:20;24.10;;;18.10;;
13163;SDS011;6647;53.688;10.746;2023-07-29T05:38:21;22.20;;;19.70;;
13163;SDS011;6647;53.688;10.746;2023-07-29T05:39:21;24.03;;;19.50;;
13163;SDS011;6647;53.688;10.746;2023-07-29T05:40:21;28.93;;;19.37;;
13163;SDS011;6647;53.688;10.746;2023-07-29T05:41:22;23.97;;;19.13;;
13163;SDS011;6647;53.688;10.746;2023-07-29T05:42:22;25.50;;;19.30;;
13163;SDS011;6647;53.688;10.746;2023-07-29T05:43:26;25.93;;;18.90;;
13163;SDS011;6647;53.688;10.746;2023-07-29T05:44:27;24.20;;;19.45;;
13163;SDS011;6647;53.688;10.746;2023-07-29T05:45:27;24.00;;;18.27;;
13163;SDS011;6647;53.688;10.746;2023-07-29T05:46:27;21.57;;;18.07;;
13163;SDS011;6647;53.688;10.746;2023-07-29T05:47:27;24.73;;;18.70;;
13163;SDS011;6647;53.688;10.746;2023-07-29T05:48:28;24.50;;;18.40;;
13163;SDS011;6647;53.688;10.746;2023-07-29T05:49:28;24.37;;;17.53;;
13163;SDS011;6647;53.688;10.746;2023-07-29T05:50:28;22.50;;;17.90;;
13163;SDS011;6647;53.688;10.746;2023-07-29T05:51:29;25.10;;;18.70;;
13163;SDS011;6647;53.688;10.746;2023-07-29T05:52:29;25.03;;;20.33;;
13163;SDS011;6647;53.688;10.746;2023-07-29T05:53:29;24.23;;;20.43;;
13163;SDS011;6647;53.688;10.746;2023-07-29T05:54:30;25.90;;;19.97;;
13163;SDS011;6647;53.688;10.746;2023-07-29T05:55:30;26.33;;;21.70;;
13163;SDS011;6647;53.688;10.746;2023-07-29T05:56:30;26.30;;;22.27;;
13163;SDS011;6647;53.688;10.746;2023-07-29T05:57:31;28.50;;;21.40;;
13163;SDS011;6647;53.688;10.746;2023-07-29T05:58:31;28.17;;;21.50;;
13163;SDS011;6647;53.688;10.746;2023-07-29T05:59:32;25.43;;;20.37;;
13163;SDS011;6647;53.688;10.746;2023-07-29T06:00:32;24.00;;;19.83;;
13163;SDS011;6647;53.688;10.746;2023-07-29T06:01:32;27.73;;;20.13;;
13163;SDS011;6647;53.688;10.746;2023-07-29T06:02:33;26.53;;;21.57;;
13163;SDS011;6647;53.688;10.746;2023-07-29T06:03:33;26.40;;;22.30;;
13163;SDS011;6647;53.688;10.746;2023-07-29T06:04:34;31.20;;;23.13;;
13163;SDS011;6647;53.688;10.746;2023-07-29T06:05:34;30.57;;;21.67;;
13163;SDS011;6647;53.688;10.746;2023-07-29T06:06:35;29.67;;;23.70;;
13163;SDS011;6647;53.688;10.746;2023-07-29T06:07:35;26.93;;;21.70;;
13163;SDS011;6647;53.688;10.746;2023-07-29T06:08:36;27.83;;;21.10;;